sensor_id;sensor_type;location;lat;lon;timestamp;pressure;altitude;pressure_sealevel;temperature;humidity
79142;BME280;68550;-26.480;29.234;2023-12-22T00:00:49;84641.46;;;28.52;36.58
79142;BME280;68550;-26.480;29.234;2023-12-22T00:03:14;84625.49;;;28.67;36.41
79142;BME280;68550;-26.480;29.234;2023-12-22T00:05:39;84625.16;;;28.99;36.28
79142;BME280;68550;-26.480;29.234;2023-12-22T00:08:07;84636.82;;;28.74;36.22
79142;BME280;68550;-26.480;29.234;2023-12-22T00:10:30;84630.39;;;28.90;36.25
79142;BME280;68550;-26.480;29.234;2023-12-22T00:12:55;84633.61;;;28.93;36.19
79142;BME280;68550;-26.480;29.234;2023-12-22T00:15:21;84632.34;;;28.62;36.15
79142;BME280;68550;-26.480;29.234;2023-12-22T00:17:46;84630.98;;;28.82;36.15
79142;BME280;68550;-26.480;29.234;2023-12-22T00:20:15;84631.39;;;28.69;36.27
79142;BME280;68550;-26.480;29.234;2023-12-22T00:22:37;84637.69;;;28.51;36.11
79142;BME280;68550;-26.480;29.234;2023-12-22T00:25:02;84626.84;;;28.55;35.97
79142;BME280;68550;-26.480;29.234;2023-12-22T00:27:27;84620.87;;;28.67;36.06
79142;BME280;68550;-26.480;29.234;2023-12-22T00:29:53;84610.58;;;28.78;35.88
79142;BME280;68550;-26.480;29.234;2023-12-22T00:32:20;84614.55;;;28.71;35.87
79142;BME280;68550;-26.480;29.234;2023-12-22T00:34:43;84616.94;;;28.76;35.75
79142;BME280;68550;-26.480;29.234;2023-12-22T00:37:08;84616.52;;;28.81;35.67
79142;BME280;68550;-26.480;29.234;2023-12-22T00:39:34;84614.30;;;28.88;35.55
79142;BME280;68550;-26.480;29.234;2023-12-22T00:41:59;84617.10;;;28.89;35.58
79142;BME280;68550;-26.480;29.234;2023-12-22T00:44:26;84610.94;;;28.77;35.75
79142;BME280;68550;-26.480;29.234;2023-12-22T00:46:50;84602.78;;;28.77;35.63
79142;BME280;68550;-26.480;29.234;2023-12-22T00:49:15;84600.27;;;28.76;35.59
79142;BME280;68550;-26.480;29.234;2023-12-22T00:51:40;84600.99;;;28.64;35.71
79142;BME280;68550;-26.480;29.234;2023-12-22T00:54:05;84593.55;;;28.70;35.56
79142;BME280;68550;-26.480;29.234;2023-12-22T00:56:32;84598.93;;;28.79;35.53
79142;BME280;68550;-26.480;29.234;2023-12-22T00:58:56;84609.05;;;28.92;35.38
79142;BME280;68550;-26.480;29.234;2023-12-22T01:01:21;84605.79;;;28.67;35.24
79142;BME280;68550;-26.480;29.234;2023-12-22T01:03:46;84602.73;;;28.72;35.42
79142;BME280;68550;-26.480;29.234;2023-12-22T01:06:12;84621.64;;;28.76;35.29
79142;BME280;68550;-26.480;29.234;2023-12-22T01:08:39;84605.50;;;28.82;35.14
79142;BME280;68550;-26.480;29.234;2023-12-22T01:11:02;84607.73;;;28.72;35.23
79142;BME280;68550;-26.480;29.234;2023-12-22T01:13:32;84599.96;;;28.63;35.33
79142;BME280;68550;-26.480;29.234;2023-12-22T01:15:53;84593.91;;;28.38;35.55
79142;BME280;68550;-26.480;29.234;2023-12-22T01:18:18;84589.50;;;28.75;35.44
79142;BME280;68550;-26.480;29.234;2023-12-22T01:20:44;84591.12;;;28.26;35.41
79142;BME280;68550;-26.480;29.234;2023-12-22T01:23:09;84586.70;;;28.65;35.00
79142;BME280;68550;-26.480;29.234;2023-12-22T01:25:40;84581.24;;;28.55;35.14
79142;BME280;68550;-26.480;29.234;2023-12-22T01:28:00;84571.82;;;28.35;35.33
79142;BME280;68550;-26.480;29.234;2023-12-22T01:30:25;84570.23;;;28.40;35.25
79142;BME280;68550;-26.480;29.234;2023-12-22T01:32:50;84571.93;;;28.61;34.98
79142;BME280;68550;-26.480;29.234;2023-12-22T01:35:20;84569.02;;;28.47;35.12
79142;BME280;68550;-26.480;29.234;2023-12-22T01:37:41;84574.31;;;28.62;35.10
79142;BME280;68550;-26.480;29.234;2023-12-22T01:40:09;84576.89;;;28.16;35.45
79142;BME280;68550;-26.480;29.234;2023-12-22T01:42:32;84570.33;;;28.26;35.38
79142;BME280;68550;-26.480;29.234;2023-12-22T01:44:57;84569.74;;;28.19;35.57
79142;BME280;68550;-26.480;29.234;2023-12-22T01:47:22;84572.96;;;28.20;35.45
79142;BME280;68550;-26.480;29.234;2023-12-22T01:49:47;84574.59;;;28.01;35.62
79142;BME280;68550;-26.480;29.234;2023-12-22T01:52:13;84566.19;;;28.10;35.21
79142;BME280;68550;-26.480;29.234;2023-12-22T01:54:38;84556.48;;;28.03;35.33
79142;BME280;68550;-26.480;29.234;2023-12-22T01:57:03;84551.96;;;28.07;35.36
79142;BME280;68550;-26.480;29.234;2023-12-22T01:59:31;84549.01;;;28.37;35.04
79142;BME280;68550;-26.480;29.234;2023-12-22T02:01:54;84545.84;;;28.25;35.15
79142;BME280;68550;-26.480;29.234;2023-12-22T02:04:19;84547.33;;;28.29;34.84
79142;BME280;68550;-26.480;29.234;2023-12-22T02:06:48;84548.21;;;28.56;34.68
79142;BME280;68550;-26.480;29.234;2023-12-22T02:09:09;84544.00;;;28.43;34.71
79142;BME280;68550;-26.480;29.234;2023-12-22T02:11:35;84541.61;;;28.51;34.51
79142;BME280;68550;-26.480;29.234;2023-12-22T02:14:00;84526.72;;;28.45;34.33
79142;BME280;68550;-26.480;29.234;2023-12-22T02:16:31;84519.50;;;28.49;34.32
79142;BME280;68550;-26.480;29.234;2023-12-22T02:18:56;84508.01;;;28.34;34.37
79142;BME280;68550;-26.480;29.234;2023-12-22T02:21:18;84497.43;;;28.42;34.33
79142;BME280;68550;-26.480;29.234;2023-12-22T02:23:42;84492.90;;;28.49;34.17
79142;BME280;68550;-26.480;29.234;2023-12-22T02:26:12;84487.67;;;28.12;34.19
79142;BME280;68550;-26.480;29.234;2023-12-22T02:28:33;84481.32;;;28.44;34.03
79142;BME280;68550;-26.480;29.234;2023-12-22T02:31:06;84471.43;;;28.25;34.25
79142;BME280;68550;-26.480;29.234;2023-12-22T02:33:28;84463.46;;;27.71;34.45
79142;BME280;68550;-26.480;29.234;2023-12-22T02:35:50;84466.11;;;27.96;34.58
79142;BME280;68550;-26.480;29.234;2023-12-22T02:38:14;84466.65;;;27.79;34.81
79142;BME280;68550;-26.480;29.234;2023-12-22T02:40:39;84471.83;;;27.78;34.84
79142;BME280;68550;-26.480;29.234;2023-12-22T02:43:06;84470.79;;;27.83;34.77
79142;BME280;68550;-26.480;29.234;2023-12-22T02:45:30;84473.33;;;27.77;34.79
79142;BME280;68550;-26.480;29.234;2023-12-22T02:47:55;84475.56;;;27.72;34.77
79142;BME280;68550;-26.480;29.234;2023-12-22T02:50:20;84476.74;;;27.75;34.71
79142;BME280;68550;-26.480;29.234;2023-12-22T02:52:46;84483.34;;;27.77;34.68
79142;BME280;68550;-26.480;29.234;2023-12-22T02:55:13;84490.28;;;27.84;34.66
79142;BME280;68550;-26.480;29.234;2023-12-22T02:57:36;84493.39;;;28.08;34.58
79142;BME280;68550;-26.480;29.234;2023-12-22T03:00:02;84489.67;;;27.96;34.75
79142;BME280;68550;-26.480;29.234;2023-12-22T03:02:27;84479.53;;;28.04;34.69
79142;BME280;68550;-26.480;29.234;2023-12-22T03:04:52;84475.84;;;28.06;34.72
79142;BME280;68550;-26.480;29.234;2023-12-22T03:07:20;84482.04;;;27.93;34.77
79142;BME280;68550;-26.480;29.234;2023-12-22T03:09:46;84480.72;;;28.17;34.40
79142;BME280;68550;-26.480;29.234;2023-12-22T03:12:10;84488.80;;;28.20;34.22
79142;BME280;68550;-26.480;29.234;2023-12-22T03:14:33;84494.15;;;28.52;34.11
79142;BME280;68550;-26.480;29.234;2023-12-22T03:16:58;84498.75;;;28.19;34.16
79142;BME280;68550;-26.480;29.234;2023-12-22T03:19:26;84502.21;;;28.02;34.72
79142;BME280;68550;-26.480;29.234;2023-12-22T03:21:49;84503.60;;;27.72;34.87
79142;BME280;68550;-26.480;29.234;2023-12-22T03:24:14;84508.88;;;27.92;35.00
79142;BME280;68550;-26.480;29.234;2023-12-22T03:26:40;84521.85;;;27.47;35.28
79142;BME280;68550;-26.480;29.234;2023-12-22T03:29:09;84534.15;;;27.49;35.33
79142;BME280;68550;-26.480;29.234;2023-12-22T03:31:30;84543.58;;;27.74;35.17
79142;BME280;68550;-26.480;29.234;2023-12-22T03:33:56;84541.10;;;27.68;35.30
79142;BME280;68550;-26.480;29.234;2023-12-22T03:36:25;84533.87;;;27.56;35.35
79142;BME280;68550;-26.480;29.234;2023-12-22T03:38:46;84530.23;;;27.67;35.43
79142;BME280;68550;-26.480;29.234;2023-12-22T03:41:12;84541.05;;;27.76;35.44
79142;BME280;68550;-26.480;29.234;2023-12-22T03:43:37;84553.01;;;27.40;35.60
79142;BME280;68550;-26.480;29.234;2023-12-22T03:46:03;84555.29;;;27.76;35.56
79142;BME280;68550;-26.480;29.234;2023-12-22T03:48:30;84560.44;;;27.62;35.46
79142;BME280;68550;-26.480;29.234;2023-12-22T03:50:53;84561.28;;;27.52;35.59
79142;BME280;68550;-26.480;29.234;2023-12-22T03:53:19;84556.78;;;27.57;35.62
79142;BME280;68550;-26.480;29.234;2023-12-22T03:55:44;84558.26;;;28.00;35.64
79142;BME280;68550;-26.480;29.234;2023-12-22T03:58:09;84552.08;;;27.77;35.71
79142;BME280;68550;-26.480;29.234;2023-12-22T04:00:35;84550.89;;;27.85;35.63
79142;BME280;68550;-26.480;29.234;2023-12-22T04:03:01;84552.68;;;27.84;35.62
79142;BME280;68550;-26.480;29.234;2023-12-22T04:05:28;84559.52;;;27.89;35.61
79142;BME280;68550;-26.480;29.234;2023-12-22T04:07:51;84564.87;;;27.66;35.62
79142;BME280;68550;-26.480;29.234;2023-12-22T04:10:17;84572.74;;;27.85;35.67
79142;BME280;68550;-26.480;29.234;2023-12-22T04:12:44;84577.69;;;28.18;35.69
79142;BME280;68550;-26.480;29.234;2023-12-22T04:15:12;84578.48;;;27.97;35.79
79142;BME280;68550;-26.480;29.234;2023-12-22T04:17:33;84577.25;;;27.75;35.84
79142;BME280;68550;-26.480;29.234;2023-12-22T04:19:58;84579.65;;;27.79;35.73
79142;BME280;68550;-26.480;29.234;2023-12-22T04:22:23;84583.09;;;27.33;35.97
79142;BME280;68550;-26.480;29.234;2023-12-22T04:24:49;84590.68;;;27.72;35.90
79142;BME280;68550;-26.480;29.234;2023-12-22T04:27:14;84591.01;;;27.86;35.97
79142;BME280;68550;-26.480;29.234;2023-12-22T04:29:40;84593.28;;;28.04;35.88
79142;BME280;68550;-26.480;29.234;2023-12-22T04:32:05;84594.21;;;27.62;35.76
79142;BME280;68550;-26.480;29.234;2023-12-22T04:34:30;84601.08;;;27.34;36.07
79142;BME280;68550;-26.480;29.234;2023-12-22T04:36:56;84601.71;;;27.67;35.96
79142;BME280;68550;-26.480;29.234;2023-12-22T04:39:23;84610.28;;;27.34;36.12
79142;BME280;68550;-26.480;29.234;2023-12-22T04:41:46;84614.25;;;27.34;36.26
79142;BME280;68550;-26.480;29.234;2023-12-22T04:44:15;84616.29;;;27.52;36.20
79142;BME280;68550;-26.480;29.234;2023-12-22T04:46:36;84622.16;;;27.85;36.12
79142;BME280;68550;-26.480;29.234;2023-12-22T04:49:01;84627.90;;;27.45;36.05
79142;BME280;68550;-26.480;29.234;2023-12-22T04:51:26;84632.16;;;27.40;36.12
79142;BME280;68550;-26.480;29.234;2023-12-22T04:53:54;84633.07;;;27.45;36.08
79142;BME280;68550;-26.480;29.234;2023-12-22T04:56:17;84629.21;;;27.67;36.15
79142;BME280;68550;-26.480;29.234;2023-12-22T04:58:42;84630.54;;;27.47;36.11
79142;BME280;68550;-26.480;29.234;2023-12-22T05:01:10;84631.67;;;27.76;36.03
79142;BME280;68550;-26.480;29.234;2023-12-22T05:03:33;84637.48;;;27.96;36.12
79142;BME280;68550;-26.480;29.234;2023-12-22T05:06:02;84638.81;;;27.71;36.16
79142;BME280;68550;-26.480;29.234;2023-12-22T05:08:24;84640.28;;;27.52;36.08
79142;BME280;68550;-26.480;29.234;2023-12-22T05:10:50;84644.67;;;27.44;36.20
79142;BME280;68550;-26.480;29.234;2023-12-22T05:13:14;84646.15;;;27.66;36.22
79142;BME280;68550;-26.480;29.234;2023-12-22T05:15:40;84652.96;;;27.68;36.23
79142;BME280;68550;-26.480;29.234;2023-12-22T05:18:06;84650.40;;;27.56;36.13
79142;BME280;68550;-26.480;29.234;2023-12-22T05:20:30;84646.08;;;27.41;36.46
79142;BME280;68550;-26.480;29.234;2023-12-22T05:22:57;84642.78;;;27.64;36.52
79142;BME280;68550;-26.480;29.234;2023-12-22T05:25:21;84641.22;;;27.21;36.79
79142;BME280;68550;-26.480;29.234;2023-12-22T05:27:46;84644.86;;;27.32;36.86
79142;BME280;68550;-26.480;29.234;2023-12-22T05:30:12;84647.39;;;27.85;36.87
79142;BME280;68550;-26.480;29.234;2023-12-22T05:32:40;84644.04;;;27.26;37.10
79142;BME280;68550;-26.480;29.234;2023-12-22T05:35:02;84640.73;;;27.48;37.25
79142;BME280;68550;-26.480;29.234;2023-12-22T05:37:26;84640.73;;;27.43;37.51
79142;BME280;68550;-26.480;29.234;2023-12-22T05:39:52;84648.05;;;27.68;37.56
79142;BME280;68550;-26.480;29.234;2023-12-22T05:42:21;84656.00;;;27.65;37.48
79142;BME280;68550;-26.480;29.234;2023-12-22T05:44:44;84660.84;;;27.20;37.63
79142;BME280;68550;-26.480;29.234;2023-12-22T05:47:08;84658.57;;;27.86;37.46
79142;BME280;68550;-26.480;29.234;2023-12-22T05:49:33;84657.90;;;27.72;37.84
79142;BME280;68550;-26.480;29.234;2023-12-22T05:51:58;84656.65;;;27.75;37.93
79142;BME280;68550;-26.480;29.234;2023-12-22T05:54:26;84656.21;;;27.60;38.01
79142;BME280;68550;-26.480;29.234;2023-12-22T05:56:50;84658.19;;;27.66;37.53
79142;BME280;68550;-26.480;29.234;2023-12-22T05:59:14;84657.01;;;27.44;37.96
79142;BME280;68550;-26.480;29.234;2023-12-22T06:01:39;84657.11;;;27.41;38.37
79142;BME280;68550;-26.480;29.234;2023-12-22T06:04:05;84659.97;;;27.59;38.21
79142;BME280;68550;-26.480;29.234;2023-12-22T06:06:32;84664.34;;;27.59;38.21
79142;BME280;68550;-26.480;29.234;2023-12-22T06:08:58;84671.09;;;27.60;38.19
79142;BME280;68550;-26.480;29.234;2023-12-22T06:11:21;84673.53;;;27.54;38.37
79142;BME280;68550;-26.480;29.234;2023-12-22T06:13:47;84676.56;;;27.96;38.54
79142;BME280;68550;-26.480;29.234;2023-12-22T06:16:13;84679.79;;;27.45;38.77
79142;BME280;68550;-26.480;29.234;2023-12-22T06:18:37;84684.71;;;27.47;38.65
79142;BME280;68550;-26.480;29.234;2023-12-22T06:21:05;84688.11;;;27.46;38.76
79142;BME280;68550;-26.480;29.234;2023-12-22T06:23:30;84692.75;;;27.43;38.80
79142;BME280;68550;-26.480;29.234;2023-12-22T06:25:54;84689.88;;;28.19;38.43
79142;BME280;68550;-26.480;29.234;2023-12-22T06:28:19;84686.27;;;27.51;38.85
79142;BME280;68550;-26.480;29.234;2023-12-22T06:30:44;84687.41;;;27.63;39.10
79142;BME280;68550;-26.480;29.234;2023-12-22T06:33:12;84683.49;;;27.58;38.93
79142;BME280;68550;-26.480;29.234;2023-12-22T06:35:35;84678.45;;;27.64;38.96
79142;BME280;68550;-26.480;29.234;2023-12-22T06:38:01;84674.85;;;27.31;39.49
79142;BME280;68550;-26.480;29.234;2023-12-22T06:40:26;84673.98;;;27.53;39.24
79142;BME280;68550;-26.480;29.234;2023-12-22T06:42:55;84674.04;;;28.12;38.54
79142;BME280;68550;-26.480;29.234;2023-12-22T06:45:17;84678.51;;;27.59;38.80
79142;BME280;68550;-26.480;29.234;2023-12-22T06:47:49;84685.11;;;27.88;38.77
79142;BME280;68550;-26.480;29.234;2023-12-22T06:50:09;84689.54;;;27.70;38.58
79142;BME280;68550;-26.480;29.234;2023-12-22T06:52:33;84694.20;;;27.41;38.98
79142;BME280;68550;-26.480;29.234;2023-12-22T06:54:59;84690.56;;;27.43;39.01
79142;BME280;68550;-26.480;29.234;2023-12-22T06:57:26;84687.20;;;27.69;38.81
79142;BME280;68550;-26.480;29.234;2023-12-22T06:59:51;84686.49;;;27.91;38.53
79142;BME280;68550;-26.480;29.234;2023-12-22T07:02:17;84685.46;;;27.98;38.39
79142;BME280;68550;-26.480;29.234;2023-12-22T07:07:05;84688.43;;;28.00;38.38
79142;BME280;68550;-26.480;29.234;2023-12-22T07:09:32;84688.77;;;27.89;38.30
79142;BME280;68550;-26.480;29.234;2023-12-22T07:11:57;84686.01;;;28.05;38.32
79142;BME280;68550;-26.480;29.234;2023-12-22T07:14:23;84692.33;;;28.14;38.17
79142;BME280;68550;-26.480;29.234;2023-12-22T07:16:48;84693.32;;;28.28;38.24
79142;BME280;68550;-26.480;29.234;2023-12-22T07:19:13;84691.36;;;27.85;38.34
79142;BME280;68550;-26.480;29.234;2023-12-22T07:21:36;84695.57;;;27.89;38.29
79142;BME280;68550;-26.480;29.234;2023-12-22T07:24:02;84696.12;;;27.87;38.29
79142;BME280;68550;-26.480;29.234;2023-12-22T07:26:29;84693.93;;;27.91;38.25
79142;BME280;68550;-26.480;29.234;2023-12-22T07:28:56;84690.26;;;27.88;38.30
79142;BME280;68550;-26.480;29.234;2023-12-22T07:31:18;84688.84;;;27.84;38.54
79142;BME280;68550;-26.480;29.234;2023-12-22T07:33:44;84687.13;;;28.12;38.20
79142;BME280;68550;-26.480;29.234;2023-12-22T07:36:09;84688.19;;;27.91;38.44
79142;BME280;68550;-26.480;29.234;2023-12-22T07:38:35;84688.28;;;27.98;38.02
79142;BME280;68550;-26.480;29.234;2023-12-22T07:41:01;84689.35;;;27.94;38.40
79142;BME280;68550;-26.480;29.234;2023-12-22T07:43:25;84690.56;;;27.88;38.45
79142;BME280;68550;-26.480;29.234;2023-12-22T07:45:50;84692.65;;;28.04;38.42
79142;BME280;68550;-26.480;29.234;2023-12-22T07:48:15;84693.13;;;28.71;38.27
79142;BME280;68550;-26.480;29.234;2023-12-22T07:50:43;84690.80;;;27.95;38.32
79142;BME280;68550;-26.480;29.234;2023-12-22T07:53:05;84689.53;;;28.16;38.38
79142;BME280;68550;-26.480;29.234;2023-12-22T07:55:31;84684.02;;;28.27;38.31
79142;BME280;68550;-26.480;29.234;2023-12-22T07:57:56;84679.41;;;27.82;38.31
79142;BME280;68550;-26.480;29.234;2023-12-22T08:00:22;84672.90;;;28.17;38.26
79142;BME280;68550;-26.480;29.234;2023-12-22T08:02:47;84669.45;;;28.25;38.30
79142;BME280;68550;-26.480;29.234;2023-12-22T08:05:12;84668.39;;;28.32;38.31
79142;BME280;68550;-26.480;29.234;2023-12-22T08:07:37;84665.75;;;28.23;38.33
79142;BME280;68550;-26.480;29.234;2023-12-22T08:10:04;84663.99;;;28.30;38.14
79142;BME280;68550;-26.480;29.234;2023-12-22T08:12:30;84663.58;;;28.63;37.79
79142;BME280;68550;-26.480;29.234;2023-12-22T08:14:53;84665.18;;;28.22;38.05
79142;BME280;68550;-26.480;29.234;2023-12-22T08:17:19;84663.63;;;28.28;38.02
79142;BME280;68550;-26.480;29.234;2023-12-22T08:19:44;84662.82;;;28.11;38.06
79142;BME280;68550;-26.480;29.234;2023-12-22T08:22:10;84661.28;;;28.08;38.02
79142;BME280;68550;-26.480;29.234;2023-12-22T08:24:36;84659.29;;;28.13;37.87
79142;BME280;68550;-26.480;29.234;2023-12-22T08:27:00;84658.22;;;28.04;38.02
79142;BME280;68550;-26.480;29.234;2023-12-22T08:29:25;84656.95;;;28.14;37.70
79142;BME280;68550;-26.480;29.234;2023-12-22T08:31:50;84656.70;;;28.14;37.82
79142;BME280;68550;-26.480;29.234;2023-12-22T08:34:16;84656.71;;;28.24;38.05
79142;BME280;68550;-26.480;29.234;2023-12-22T08:36:41;84656.10;;;28.26;38.09
79142;BME280;68550;-26.480;29.234;2023-12-22T08:39:06;84657.17;;;28.42;37.88
79142;BME280;68550;-26.480;29.234;2023-12-22T08:41:32;84657.55;;;28.36;37.98
79142;BME280;68550;-26.480;29.234;2023-12-22T08:43:56;84654.16;;;28.17;37.62
79142;BME280;68550;-26.480;29.234;2023-12-22T08:46:21;84653.75;;;28.15;37.80
79142;BME280;68550;-26.480;29.234;2023-12-22T08:48:49;84650.54;;;27.96;37.65
79142;BME280;68550;-26.480;29.234;2023-12-22T08:51:12;84650.01;;;28.19;37.47
79142;BME280;68550;-26.480;29.234;2023-12-22T08:53:37;84649.37;;;28.32;37.53
79142;BME280;68550;-26.480;29.234;2023-12-22T08:56:03;84644.31;;;28.32;37.45
79142;BME280;68550;-26.480;29.234;2023-12-22T08:58:28;84640.11;;;28.36;37.53
79142;BME280;68550;-26.480;29.234;2023-12-22T09:00:56;84638.08;;;28.17;37.40
79142;BME280;68550;-26.480;29.234;2023-12-22T09:03:21;84634.05;;;28.40;37.58
79142;BME280;68550;-26.480;29.234;2023-12-22T09:05:44;84630.62;;;28.40;37.54
79142;BME280;68550;-26.480;29.234;2023-12-22T09:08:11;84630.43;;;28.36;37.33
79142;BME280;68550;-26.480;29.234;2023-12-22T09:10:35;84626.61;;;28.45;37.07
79142;BME280;68550;-26.480;29.234;2023-12-22T09:13:00;84624.44;;;28.52;36.92
79142;BME280;68550;-26.480;29.234;2023-12-22T09:15:28;84619.07;;;28.18;37.10
79142;BME280;68550;-26.480;29.234;2023-12-22T09:17:51;84618.07;;;28.45;36.66
79142;BME280;68550;-26.480;29.234;2023-12-22T09:20:16;84615.26;;;28.38;37.07
79142;BME280;68550;-26.480;29.234;2023-12-22T09:22:41;84615.54;;;28.39;36.80
79142;BME280;68550;-26.480;29.234;2023-12-22T09:25:07;84614.26;;;28.15;36.89
79142;BME280;68550;-26.480;29.234;2023-12-22T09:27:34;84615.64;;;28.25;37.03
79142;BME280;68550;-26.480;29.234;2023-12-22T09:29:57;84612.47;;;28.35;37.18
79142;BME280;68550;-26.480;29.234;2023-12-22T09:32:23;84613.48;;;28.43;36.79
79142;BME280;68550;-26.480;29.234;2023-12-22T09:34:48;84613.78;;;28.35;36.92
79142;BME280;68550;-26.480;29.234;2023-12-22T09:37:14;84614.48;;;28.42;37.24
79142;BME280;68550;-26.480;29.234;2023-12-22T09:39:41;84612.94;;;28.54;37.22
79142;BME280;68550;-26.480;29.234;2023-12-22T09:42:06;84610.20;;;28.47;37.40
79142;BME280;68550;-26.480;29.234;2023-12-22T09:44:32;84610.10;;;28.64;37.46
79142;BME280;68550;-26.480;29.234;2023-12-22T09:46:57;84611.93;;;28.46;37.02
79142;BME280;68550;-26.480;29.234;2023-12-22T09:49:26;84615.57;;;28.53;36.81
79142;BME280;68550;-26.480;29.234;2023-12-22T09:51:48;84610.16;;;28.25;37.09
79142;BME280;68550;-26.480;29.234;2023-12-22T09:54:12;84609.06;;;28.54;37.18
79142;BME280;68550;-26.480;29.234;2023-12-22T09:56:38;84609.53;;;28.50;37.27
79142;BME280;68550;-26.480;29.234;2023-12-22T09:59:02;84593.42;;;28.42;37.28
79142;BME280;68550;-26.480;29.234;2023-12-22T10:01:28;84601.88;;;28.54;37.36
79142;BME280;68550;-26.480;29.234;2023-12-22T10:03:55;84604.34;;;28.51;37.48
79142;BME280;68550;-26.480;29.234;2023-12-22T10:06:18;84598.07;;;28.54;37.54
79142;BME280;68550;-26.480;29.234;2023-12-22T10:08:44;84602.35;;;28.27;37.52
79142;BME280;68550;-26.480;29.234;2023-12-22T10:11:09;84598.29;;;28.69;37.13
79142;BME280;68550;-26.480;29.234;2023-12-22T10:13:37;84601.99;;;28.64;37.32
79142;BME280;68550;-26.480;29.234;2023-12-22T10:16:00;84601.02;;;28.31;37.20
79142;BME280;68550;-26.480;29.234;2023-12-22T10:18:26;84592.76;;;28.50;37.15
79142;BME280;68550;-26.480;29.234;2023-12-22T10:20:51;84593.77;;;28.30;37.44
79142;BME280;68550;-26.480;29.234;2023-12-22T10:23:15;84587.32;;;28.64;37.84
79142;BME280;68550;-26.480;29.234;2023-12-22T10:25:41;84585.41;;;28.59;37.66
79142;BME280;68550;-26.480;29.234;2023-12-22T10:28:05;84584.76;;;28.61;37.69
79142;BME280;68550;-26.480;29.234;2023-12-22T10:30:36;84580.66;;;28.68;37.73
79142;BME280;68550;-26.480;29.234;2023-12-22T10:32:56;84578.55;;;28.81;37.78
79142;BME280;68550;-26.480;29.234;2023-12-22T10:35:21;84577.15;;;28.77;37.93
79142;BME280;68550;-26.480;29.234;2023-12-22T10:37:46;84574.52;;;28.77;37.80
79142;BME280;68550;-26.480;29.234;2023-12-22T10:40:12;84571.80;;;28.99;37.67
79142;BME280;68550;-26.480;29.234;2023-12-22T10:42:37;84569.88;;;29.01;37.39
79142;BME280;68550;-26.480;29.234;2023-12-22T10:45:06;84568.53;;;28.77;37.60
79142;BME280;68550;-26.480;29.234;2023-12-22T10:47:28;84563.08;;;28.79;37.68
79142;BME280;68550;-26.480;29.234;2023-12-22T10:49:53;84559.89;;;28.52;36.79
79142;BME280;68550;-26.480;29.234;2023-12-22T10:52:18;84564.22;;;28.63;36.85
79142;BME280;68550;-26.480;29.234;2023-12-22T10:54:43;84560.05;;;28.81;36.78
79142;BME280;68550;-26.480;29.234;2023-12-22T10:59:44;84562.84;;;28.87;36.97
79142;BME280;68550;-26.480;29.234;2023-12-22T11:01:59;84564.59;;;28.63;37.19
79142;BME280;68550;-26.480;29.234;2023-12-22T11:04:29;84562.10;;;28.68;37.16
79142;BME280;68550;-26.480;29.234;2023-12-22T11:06:52;84560.13;;;28.62;37.29
79142;BME280;68550;-26.480;29.234;2023-12-22T11:09:17;84559.55;;;28.40;36.44
79142;BME280;68550;-26.480;29.234;2023-12-22T11:11:41;84555.29;;;28.63;36.57
79142;BME280;68550;-26.480;29.234;2023-12-22T11:14:09;84552.67;;;28.98;36.88
79142;BME280;68550;-26.480;29.234;2023-12-22T11:16:32;84554.15;;;28.40;36.88
79142;BME280;68550;-26.480;29.234;2023-12-22T11:19:02;84550.06;;;28.31;37.07
79142;BME280;68550;-26.480;29.234;2023-12-22T11:21:25;84548.62;;;28.80;37.39
79142;BME280;68550;-26.480;29.234;2023-12-22T11:23:48;84547.98;;;28.70;37.66
79142;BME280;68550;-26.480;29.234;2023-12-22T11:26:15;84541.90;;;29.17;37.49
79142;BME280;68550;-26.480;29.234;2023-12-22T11:28:39;84539.23;;;28.77;37.75
79142;BME280;68550;-26.480;29.234;2023-12-22T11:31:04;84537.69;;;29.14;37.56
79142;BME280;68550;-26.480;29.234;2023-12-22T11:33:31;84538.53;;;29.09;37.54
79142;BME280;68550;-26.480;29.234;2023-12-22T11:35:55;84535.70;;;29.17;37.49
79142;BME280;68550;-26.480;29.234;2023-12-22T11:38:20;84535.97;;;28.90;37.58
79142;BME280;68550;-26.480;29.234;2023-12-22T11:40:45;84533.78;;;29.19;37.55
79142;BME280;68550;-26.480;29.234;2023-12-22T11:43:11;84530.07;;;28.97;37.43
79142;BME280;68550;-26.480;29.234;2023-12-22T11:45:37;84525.47;;;28.98;37.41
79142;BME280;68550;-26.480;29.234;2023-12-22T11:48:06;84523.48;;;28.69;37.71
79142;BME280;68550;-26.480;29.234;2023-12-22T11:50:30;84524.14;;;28.73;37.53
79142;BME280;68550;-26.480;29.234;2023-12-22T11:52:51;84521.35;;;28.70;37.40
79142;BME280;68550;-26.480;29.234;2023-12-22T11:55:17;84515.93;;;28.64;37.41
79142;BME280;68550;-26.480;29.234;2023-12-22T11:57:44;84512.08;;;28.97;37.32
79142;BME280;68550;-26.480;29.234;2023-12-22T12:00:09;84513.18;;;29.01;37.31
79142;BME280;68550;-26.480;29.234;2023-12-22T12:02:35;84513.00;;;28.57;36.18
79142;BME280;68550;-26.480;29.234;2023-12-22T12:04:59;84512.59;;;29.10;36.64
79142;BME280;68550;-26.480;29.234;2023-12-22T12:07:37;84510.45;;;28.85;36.62
79142;BME280;68550;-26.480;29.234;2023-12-22T12:09:50;84507.48;;;29.17;36.62
79142;BME280;68550;-26.480;29.234;2023-12-22T12:12:15;84503.54;;;29.20;36.74
79142;BME280;68550;-26.480;29.234;2023-12-22T12:14:43;84499.28;;;28.96;36.84
79142;BME280;68550;-26.480;29.234;2023-12-22T12:17:08;84495.64;;;28.69;35.81
79142;BME280;68550;-26.480;29.234;2023-12-22T12:19:35;84492.59;;;28.90;36.15
79142;BME280;68550;-26.480;29.234;2023-12-22T12:21:57;84487.40;;;29.00;36.78
79142;BME280;68550;-26.480;29.234;2023-12-22T12:24:23;84487.91;;;28.89;37.16
79142;BME280;68550;-26.480;29.234;2023-12-22T12:26:46;84487.61;;;29.10;37.08
79142;BME280;68550;-26.480;29.234;2023-12-22T12:29:12;84485.95;;;29.10;36.93
79142;BME280;68550;-26.480;29.234;2023-12-22T12:31:38;84481.88;;;29.12;37.25
79142;BME280;68550;-26.480;29.234;2023-12-22T12:34:05;84479.38;;;29.13;37.27